sensor_id;sensor_type;location;lat;lon;timestamp;P1;durP1;ratioP1;P2;durP2;ratioP2
9222;SDS011;7557;51.698;3.942;2023-04-01T00:02:06;40.27;;;9.97;;
9222;SDS011;7557;51.698;3.942;2023-04-01T00:04:33;39.77;;;10.37;;
9222;SDS011;7557;51.698;3.942;2023-04-01T00:07:01;35.33;;;9.60;;
9222;SDS011;7557;51.698;3.942;2023-04-01T00:09:30;32.93;;;9.77;;
9222;SDS011;7557;51.698;3.942;2023-04-01T00:11:58;29.53;;;9.37;;
9222;SDS011;7557;51.698;3.942;2023-04-01T00:14:25;24.73;;;8.87;;
9222;SDS011;7557;51.698;3.942;2023-04-01T00:16:55;18.33;;;6.40;;
9222;SDS011;7557;51.698;3.942;2023-04-01T00:19:23;26.73;;;8.03;;
9222;SDS011;7557;51.698;3.942;2023-04-01T00:21:51;27.70;;;8.33;;
9222;SDS011;7557;51.698;3.942;2023-04-01T00:24:18;22.43;;;7.30;;
9222;SDS011;7557;51.698;3.942;2023-04-01T00:26:46;23.63;;;8.27;;
9222;SDS011;7557;51.698;3.942;2023-04-01T00:29:14;24.77;;;8.07;;
9222;SDS011;7557;51.698;3.942;2023-04-01T00:31:41;33.10;;;9.37;;
9222;SDS011;7557;51.698;3.942;2023-04-01T00:34:10;35.53;;;9.67;;
9222;SDS011;7557;51.698;3.942;2023-04-01T00:36:38;33.67;;;10.87;;
9222;SDS011;7557;51.698;3.942;2023-04-01T00:39:06;34.30;;;10.20;;
9222;SDS011;7557;51.698;3.942;2023-04-01T00:41:33;31.63;;;9.10;;
9222;SDS011;7557;51.698;3.942;2023-04-01T00:44:17;27.07;;;8.20;;
9222;SDS011;7557;51.698;3.942;2023-04-01T00:46:47;23.80;;;8.87;;
9222;SDS011;7557;51.698;3.942;2023-04-01T00:49:17;31.10;;;9.30;;
9222;SDS011;7557;51.698;3.942;2023-04-01T00:51:50;25.77;;;8.63;;
9222;SDS011;7557;51.698;3.942;2023-04-01T00:54:21;23.37;;;8.70;;
9222;SDS011;7557;51.698;3.942;2023-04-01T00:56:54;16.50;;;5.93;;
9222;SDS011;7557;51.698;3.942;2023-04-01T00:59:27;17.23;;;6.80;;
9222;SDS011;7557;51.698;3.942;2023-04-01T01:01:57;25.00;;;8.27;;
9222;SDS011;7557;51.698;3.942;2023-04-01T01:04:28;20.20;;;9.10;;
9222;SDS011;7557;51.698;3.942;2023-04-01T01:06:59;31.90;;;12.50;;
9222;SDS011;7557;51.698;3.942;2023-04-01T01:09:35;26.67;;;11.90;;
9222;SDS011;7557;51.698;3.942;2023-04-01T01:12:13;19.87;;;9.37;;
9222;SDS011;7557;51.698;3.942;2023-04-01T01:14:54;28.47;;;10.23;;
9222;SDS011;7557;51.698;3.942;2023-04-01T01:17:30;19.47;;;9.40;;
9222;SDS011;7557;51.698;3.942;2023-04-01T01:20:15;20.00;;;8.90;;
9222;SDS011;7557;51.698;3.942;2023-04-01T01:23:21;27.90;;;11.03;;
9222;SDS011;7557;51.698;3.942;2023-04-01T01:26:21;29.17;;;12.87;;
9222;SDS011;7557;51.698;3.942;2023-04-01T01:29:30;23.93;;;10.93;;
9222;SDS011;7557;51.698;3.942;2023-04-01T01:32:28;32.30;;;13.47;;
9222;SDS011;7557;51.698;3.942;2023-04-01T01:35:16;40.67;;;16.47;;
9222;SDS011;7557;51.698;3.942;2023-04-01T01:37:49;44.37;;;18.73;;
9222;SDS011;7557;51.698;3.942;2023-04-01T01:40:20;50.87;;;17.57;;
9222;SDS011;7557;51.698;3.942;2023-04-01T01:42:49;47.23;;;18.20;;
9222;SDS011;7557;51.698;3.942;2023-04-01T01:45:18;42.43;;;13.43;;
9222;SDS011;7557;51.698;3.942;2023-04-01T01:47:50;38.97;;;13.23;;
9222;SDS011;7557;51.698;3.942;2023-04-01T01:50:20;39.10;;;13.70;;
9222;SDS011;7557;51.698;3.942;2023-04-01T01:52:49;36.17;;;11.20;;
9222;SDS011;7557;51.698;3.942;2023-04-01T01:55:23;38.80;;;12.13;;
9222;SDS011;7557;51.698;3.942;2023-04-01T01:57:57;45.23;;;15.80;;
9222;SDS011;7557;51.698;3.942;2023-04-01T02:00:27;38.90;;;12.83;;
9222;SDS011;7557;51.698;3.942;2023-04-01T02:02:55;54.40;;;15.20;;
9222;SDS011;7557;51.698;3.942;2023-04-01T02:05:27;43.00;;;12.77;;
9222;SDS011;7557;51.698;3.942;2023-04-01T02:07:59;33.80;;;10.77;;
9222;SDS011;7557;51.698;3.942;2023-04-01T02:10:28;32.33;;;12.17;;
9222;SDS011;7557;51.698;3.942;2023-04-01T02:13:01;33.67;;;13.20;;
9222;SDS011;7557;51.698;3.942;2023-04-01T02:15:34;33.00;;;15.03;;
9222;SDS011;7557;51.698;3.942;2023-04-01T02:18:07;28.67;;;8.63;;
9222;SDS011;7557;51.698;3.942;2023-04-01T02:20:40;28.80;;;11.70;;
9222;SDS011;7557;51.698;3.942;2023-04-01T02:23:08;25.67;;;10.00;;
9222;SDS011;7557;51.698;3.942;2023-04-01T02:25:37;31.33;;;14.83;;
9222;SDS011;7557;51.698;3.942;2023-04-01T02:28:06;24.77;;;10.87;;
9222;SDS011;7557;51.698;3.942;2023-04-01T02:30:36;40.57;;;16.07;;
9222;SDS011;7557;51.698;3.942;2023-04-01T02:33:06;36.37;;;15.17;;
9222;SDS011;7557;51.698;3.942;2023-04-01T02:35:34;32.70;;;10.40;;
9222;SDS011;7557;51.698;3.942;2023-04-01T02:38:04;44.93;;;13.00;;
9222;SDS011;7557;51.698;3.942;2023-04-01T02:43:16;50.57;;;15.80;;
9222;SDS011;7557;51.698;3.942;2023-04-01T02:45:44;56.03;;;17.57;;
9222;SDS011;7557;51.698;3.942;2023-04-01T02:48:12;52.47;;;17.40;;
9222;SDS011;7557;51.698;3.942;2023-04-01T02:50:39;44.37;;;14.07;;
9222;SDS011;7557;51.698;3.942;2023-04-01T02:53:08;31.87;;;11.83;;
9222;SDS011;7557;51.698;3.942;2023-04-01T02:55:37;31.90;;;12.63;;
9222;SDS011;7557;51.698;3.942;2023-04-01T02:58:04;18.53;;;8.57;;
9222;SDS011;7557;51.698;3.942;2023-04-01T03:00:32;16.13;;;9.00;;
9222;SDS011;7557;51.698;3.942;2023-04-01T03:02:59;23.23;;;10.03;;
9222;SDS011;7557;51.698;3.942;2023-04-01T03:05:27;13.20;;;7.87;;
9222;SDS011;7557;51.698;3.942;2023-04-01T03:07:55;12.93;;;6.63;;
9222;SDS011;7557;51.698;3.942;2023-04-01T03:10:24;8.77;;;7.00;;
9222;SDS011;7557;51.698;3.942;2023-04-01T03:12:52;13.93;;;8.10;;
9222;SDS011;7557;51.698;3.942;2023-04-01T03:15:19;13.37;;;6.97;;
9222;SDS011;7557;51.698;3.942;2023-04-01T03:17:47;12.73;;;5.17;;
9222;SDS011;7557;51.698;3.942;2023-04-01T03:20:14;9.90;;;6.03;;
9222;SDS011;7557;51.698;3.942;2023-04-01T03:22:42;9.57;;;6.73;;
9222;SDS011;7557;51.698;3.942;2023-04-01T03:25:11;12.27;;;6.47;;
9222;SDS011;7557;51.698;3.942;2023-04-01T03:27:40;10.87;;;5.97;;
9222;SDS011;7557;51.698;3.942;2023-04-01T03:30:08;11.53;;;5.60;;
9222;SDS011;7557;51.698;3.942;2023-04-01T03:32:36;11.87;;;6.90;;
9222;SDS011;7557;51.698;3.942;2023-04-01T03:35:03;11.50;;;6.20;;
9222;SDS011;7557;51.698;3.942;2023-04-01T03:37:32;11.70;;;5.93;;
9222;SDS011;7557;51.698;3.942;2023-04-01T03:39:59;11.87;;;6.37;;
9222;SDS011;7557;51.698;3.942;2023-04-01T03:42:27;14.80;;;6.47;;
9222;SDS011;7557;51.698;3.942;2023-04-01T03:44:58;11.57;;;7.57;;
9222;SDS011;7557;51.698;3.942;2023-04-01T03:47:25;20.83;;;9.07;;
9222;SDS011;7557;51.698;3.942;2023-04-01T03:49:53;19.00;;;8.13;;
9222;SDS011;7557;51.698;3.942;2023-04-01T03:52:20;15.30;;;6.60;;
9222;SDS011;7557;51.698;3.942;2023-04-01T03:54:48;19.67;;;8.40;;
9222;SDS011;7557;51.698;3.942;2023-04-01T03:57:16;29.07;;;10.40;;
9222;SDS011;7557;51.698;3.942;2023-04-01T03:59:43;32.27;;;10.87;;
9222;SDS011;7557;51.698;3.942;2023-04-01T04:02:13;22.07;;;8.80;;
9222;SDS011;7557;51.698;3.942;2023-04-01T04:04:40;25.27;;;9.37;;
9222;SDS011;7557;51.698;3.942;2023-04-01T04:07:08;36.10;;;11.00;;
9222;SDS011;7557;51.698;3.942;2023-04-01T04:09:36;34.00;;;12.90;;
9222;SDS011;7557;51.698;3.942;2023-04-01T04:12:03;39.80;;;12.50;;
9222;SDS011;7557;51.698;3.942;2023-04-01T04:14:32;30.10;;;10.20;;
9222;SDS011;7557;51.698;3.942;2023-04-01T04:16:59;28.87;;;10.30;;
9222;SDS011;7557;51.698;3.942;2023-04-01T04:19:32;26.83;;;10.40;;
9222;SDS011;7557;51.698;3.942;2023-04-01T04:22:00;32.13;;;10.13;;
9222;SDS011;7557;51.698;3.942;2023-04-01T04:24:27;41.97;;;11.90;;
9222;SDS011;7557;51.698;3.942;2023-04-01T04:26:55;39.00;;;13.60;;
9222;SDS011;7557;51.698;3.942;2023-04-01T04:29:22;47.10;;;14.20;;
9222;SDS011;7557;51.698;3.942;2023-04-01T04:31:50;49.90;;;14.10;;
9222;SDS011;7557;51.698;3.942;2023-04-01T04:34:18;47.83;;;13.87;;
9222;SDS011;7557;51.698;3.942;2023-04-01T04:36:48;43.50;;;14.03;;
9222;SDS011;7557;51.698;3.942;2023-04-01T04:39:16;57.03;;;14.90;;
9222;SDS011;7557;51.698;3.942;2023-04-01T04:41:43;63.80;;;16.13;;
9222;SDS011;7557;51.698;3.942;2023-04-01T04:44:11;53.30;;;16.97;;
9222;SDS011;7557;51.698;3.942;2023-04-01T04:46:38;50.37;;;15.23;;
9222;SDS011;7557;51.698;3.942;2023-04-01T04:49:06;50.97;;;18.07;;
9222;SDS011;7557;51.698;3.942;2023-04-01T04:51:34;56.20;;;17.50;;
9222;SDS011;7557;51.698;3.942;2023-04-01T04:54:03;58.77;;;19.60;;
9222;SDS011;7557;51.698;3.942;2023-04-01T04:56:31;47.63;;;18.27;;
9222;SDS011;7557;51.698;3.942;2023-04-01T04:58:59;36.27;;;16.87;;
9222;SDS011;7557;51.698;3.942;2023-04-01T05:01:27;44.13;;;17.17;;
9222;SDS011;7557;51.698;3.942;2023-04-01T05:03:55;36.17;;;16.57;;
9222;SDS011;7557;51.698;3.942;2023-04-01T05:06:22;28.73;;;10.50;;
9222;SDS011;7557;51.698;3.942;2023-04-01T05:08:51;29.83;;;13.00;;
9222;SDS011;7557;51.698;3.942;2023-04-01T05:11:20;18.80;;;9.97;;
9222;SDS011;7557;51.698;3.942;2023-04-01T05:13:48;31.07;;;13.07;;
9222;SDS011;7557;51.698;3.942;2023-04-01T05:16:17;36.77;;;13.03;;
9222;SDS011;7557;51.698;3.942;2023-04-01T05:18:45;25.83;;;11.53;;
9222;SDS011;7557;51.698;3.942;2023-04-01T05:21:13;36.33;;;13.53;;
9222;SDS011;7557;51.698;3.942;2023-04-01T05:23:41;58.37;;;15.23;;
9222;SDS011;7557;51.698;3.942;2023-04-01T05:26:10;48.80;;;14.53;;
9222;SDS011;7557;51.698;3.942;2023-04-01T05:28:40;48.63;;;13.77;;
9222;SDS011;7557;51.698;3.942;2023-04-01T05:31:08;35.37;;;13.10;;
9222;SDS011;7557;51.698;3.942;2023-04-01T05:33:35;35.57;;;11.67;;
9222;SDS011;7557;51.698;3.942;2023-04-01T05:36:07;27.93;;;10.47;;
9222;SDS011;7557;51.698;3.942;2023-04-01T05:38:35;39.47;;;12.60;;
9222;SDS011;7557;51.698;3.942;2023-04-01T05:41:03;22.33;;;9.67;;
9222;SDS011;7557;51.698;3.942;2023-04-01T05:43:31;17.67;;;8.87;;
9222;SDS011;7557;51.698;3.942;2023-04-01T05:46:00;20.20;;;8.27;;
9222;SDS011;7557;51.698;3.942;2023-04-01T05:48:27;15.67;;;8.77;;
9222;SDS011;7557;51.698;3.942;2023-04-01T05:50:55;27.07;;;10.63;;
9222;SDS011;7557;51.698;3.942;2023-04-01T05:53:22;20.03;;;8.00;;
9222;SDS011;7557;51.698;3.942;2023-04-01T05:55:50;28.60;;;11.27;;
9222;SDS011;7557;51.698;3.942;2023-04-01T05:58:18;27.43;;;11.87;;
9222;SDS011;7557;51.698;3.942;2023-04-01T06:00:45;20.57;;;11.10;;
9222;SDS011;7557;51.698;3.942;2023-04-01T06:03:14;19.47;;;9.87;;
9222;SDS011;7557;51.698;3.942;2023-04-01T06:05:42;18.40;;;9.23;;
9222;SDS011;7557;51.698;3.942;2023-04-01T06:08:11;22.30;;;9.23;;
9222;SDS011;7557;51.698;3.942;2023-04-01T06:10:46;28.43;;;11.07;;
9222;SDS011;7557;51.698;3.942;2023-04-01T06:13:22;26.00;;;11.27;;
9222;SDS011;7557;51.698;3.942;2023-04-01T06:15:58;30.33;;;10.63;;
9222;SDS011;7557;51.698;3.942;2023-04-01T06:18:59;14.87;;;7.47;;
9222;SDS011;7557;51.698;3.942;2023-04-01T06:24:44;24.33;;;11.40;;
9222;SDS011;7557;51.698;3.942;2023-04-01T06:27:36;21.37;;;10.20;;
9222;SDS011;7557;51.698;3.942;2023-04-01T06:30:26;23.57;;;9.97;;
9222;SDS011;7557;51.698;3.942;2023-04-01T06:33:23;22.00;;;11.37;;
9222;SDS011;7557;51.698;3.942;2023-04-01T06:36:04;13.83;;;7.47;;
9222;SDS011;7557;51.698;3.942;2023-04-01T06:38:45;17.67;;;8.73;;
9222;SDS011;7557;51.698;3.942;2023-04-01T06:41:36;15.27;;;8.00;;
9222;SDS011;7557;51.698;3.942;2023-04-01T06:44:16;9.80;;;6.30;;
9222;SDS011;7557;51.698;3.942;2023-04-01T06:46:48;12.77;;;6.33;;
9222;SDS011;7557;51.698;3.942;2023-04-01T06:49:31;9.13;;;6.67;;
9222;SDS011;7557;51.698;3.942;2023-04-01T06:52:10;14.70;;;9.27;;
9222;SDS011;7557;51.698;3.942;2023-04-01T06:54:47;22.67;;;10.13;;
9222;SDS011;7557;51.698;3.942;2023-04-01T06:57:20;12.67;;;6.73;;
9222;SDS011;7557;51.698;3.942;2023-04-01T06:59:55;7.80;;;5.97;;
9222;SDS011;7557;51.698;3.942;2023-04-01T07:02:28;9.83;;;6.53;;
9222;SDS011;7557;51.698;3.942;2023-04-01T07:05:02;10.70;;;6.80;;
9222;SDS011;7557;51.698;3.942;2023-04-01T07:07:35;12.23;;;7.33;;
9222;SDS011;7557;51.698;3.942;2023-04-01T07:10:09;9.63;;;6.47;;
9222;SDS011;7557;51.698;3.942;2023-04-01T07:12:41;16.03;;;6.90;;
9222;SDS011;7557;51.698;3.942;2023-04-01T07:15:15;19.33;;;7.47;;
9222;SDS011;7557;51.698;3.942;2023-04-01T07:17:47;20.93;;;8.87;;
9222;SDS011;7557;51.698;3.942;2023-04-01T07:20:20;26.23;;;10.73;;
9222;SDS011;7557;51.698;3.942;2023-04-01T07:22:54;18.03;;;7.90;;
9222;SDS011;7557;51.698;3.942;2023-04-01T07:25:25;14.47;;;7.03;;
9222;SDS011;7557;51.698;3.942;2023-04-01T07:27:56;25.57;;;9.73;;
9222;SDS011;7557;51.698;3.942;2023-04-01T07:30:28;13.33;;;7.00;;
9222;SDS011;7557;51.698;3.942;2023-04-01T07:33:04;12.93;;;6.53;;
9222;SDS011;7557;51.698;3.942;2023-04-01T07:35:36;22.70;;;6.67;;
9222;SDS011;7557;51.698;3.942;2023-04-01T07:38:14;16.23;;;6.07;;
9222;SDS011;7557;51.698;3.942;2023-04-01T07:40:52;12.77;;;7.33;;
9222;SDS011;7557;51.698;3.942;2023-04-01T07:43:30;9.50;;;4.67;;
9222;SDS011;7557;51.698;3.942;2023-04-01T07:46:10;10.70;;;5.67;;
9222;SDS011;7557;51.698;3.942;2023-04-01T07:48:49;10.43;;;5.50;;
9222;SDS011;7557;51.698;3.942;2023-04-01T07:51:23;9.10;;;4.80;;
9222;SDS011;7557;51.698;3.942;2023-04-01T07:53:59;8.90;;;5.27;;
9222;SDS011;7557;51.698;3.942;2023-04-01T07:56:34;9.10;;;4.83;;
9222;SDS011;7557;51.698;3.942;2023-04-01T07:59:10;8.33;;;4.03;;
9222;SDS011;7557;51.698;3.942;2023-04-01T08:01:49;4.50;;;3.73;;
9222;SDS011;7557;51.698;3.942;2023-04-01T08:04:39;8.00;;;4.87;;
9222;SDS011;7557;51.698;3.942;2023-04-01T08:07:15;16.43;;;6.40;;
9222;SDS011;7557;51.698;3.942;2023-04-01T08:09:50;12.00;;;5.30;;
9222;SDS011;7557;51.698;3.942;2023-04-01T08:12:27;13.43;;;5.60;;
9222;SDS011;7557;51.698;3.942;2023-04-01T08:15:06;8.10;;;4.90;;
9222;SDS011;7557;51.698;3.942;2023-04-01T08:17:48;14.80;;;5.50;;
9222;SDS011;7557;51.698;3.942;2023-04-01T08:20:26;11.83;;;5.83;;
9222;SDS011;7557;51.698;3.942;2023-04-01T08:23:00;8.77;;;4.67;;
9222;SDS011;7557;51.698;3.942;2023-04-01T08:25:37;13.03;;;5.17;;
9222;SDS011;7557;51.698;3.942;2023-04-01T08:28:09;12.53;;;6.20;;
9222;SDS011;7557;51.698;3.942;2023-04-01T08:30:43;8.90;;;4.63;;
9222;SDS011;7557;51.698;3.942;2023-04-01T08:33:16;8.83;;;5.70;;
9222;SDS011;7557;51.698;3.942;2023-04-01T08:35:49;12.07;;;5.40;;
9222;SDS011;7557;51.698;3.942;2023-04-01T08:38:22;10.30;;;4.97;;
9222;SDS011;7557;51.698;3.942;2023-04-01T08:41:08;6.53;;;4.93;;
9222;SDS011;7557;51.698;3.942;2023-04-01T08:44:02;8.63;;;4.90;;
9222;SDS011;7557;51.698;3.942;2023-04-01T08:46:55;9.13;;;4.33;;
9222;SDS011;7557;51.698;3.942;2023-04-01T08:49:43;9.13;;;5.70;;
9222;SDS011;7557;51.698;3.942;2023-04-01T08:52:30;9.60;;;5.03;;
9222;SDS011;7557;51.698;3.942;2023-04-01T08:55:12;7.50;;;3.90;;
9222;SDS011;7557;51.698;3.942;2023-04-01T08:58:30;6.27;;;4.80;;
9222;SDS011;7557;51.698;3.942;2023-04-01T09:01:16;6.40;;;4.50;;
9222;SDS011;7557;51.698;3.942;2023-04-01T09:03:57;9.73;;;3.97;;
9222;SDS011;7557;51.698;3.942;2023-04-01T09:06:41;7.57;;;4.20;;
9222;SDS011;7557;51.698;3.942;2023-04-01T09:12:20;8.77;;;4.30;;
9222;SDS011;7557;51.698;3.942;2023-04-01T09:21:31;10.17;;;3.63;;
9222;SDS011;7557;51.698;3.942;2023-04-01T09:24:17;6.00;;;3.20;;
9222;SDS011;7557;51.698;3.942;2023-04-01T09:27:18;4.53;;;2.53;;
9222;SDS011;7557;51.698;3.942;2023-04-01T09:29:59;2.50;;;2.20;;
9222;SDS011;7557;51.698;3.942;2023-04-01T09:32:53;4.40;;;3.30;;
9222;SDS011;7557;51.698;3.942;2023-04-01T09:35:55;4.93;;;2.70;;
9222;SDS011;7557;51.698;3.942;2023-04-01T09:38:35;5.80;;;3.10;;
9222;SDS011;7557;51.698;3.942;2023-04-01T09:41:13;3.37;;;3.07;;
9222;SDS011;7557;51.698;3.942;2023-04-01T09:43:55;6.77;;;3.13;;
9222;SDS011;7557;51.698;3.942;2023-04-01T09:46:32;5.77;;;3.37;;
9222;SDS011;7557;51.698;3.942;2023-04-01T09:49:17;5.33;;;2.57;;
9222;SDS011;7557;51.698;3.942;2023-04-01T09:52:20;4.57;;;3.30;;
9222;SDS011;7557;51.698;3.942;2023-04-01T09:55:06;4.73;;;3.10;;
9222;SDS011;7557;51.698;3.942;2023-04-01T09:58:08;2.53;;;2.33;;
9222;SDS011;7557;51.698;3.942;2023-04-01T10:01:00;7.13;;;3.53;;
9222;SDS011;7557;51.698;3.942;2023-04-01T10:04:11;10.07;;;3.87;;
9222;SDS011;7557;51.698;3.942;2023-04-01T10:10:21;3.77;;;3.13;;
9222;SDS011;7557;51.698;3.942;2023-04-01T10:16:18;7.73;;;4.17;;
9222;SDS011;7557;51.698;3.942;2023-04-01T10:19:11;6.23;;;4.00;;
9222;SDS011;7557;51.698;3.942;2023-04-01T10:21:58;7.53;;;4.23;;
9222;SDS011;7557;51.698;3.942;2023-04-01T10:31:00;12.03;;;6.70;;
9222;SDS011;7557;51.698;3.942;2023-04-01T10:34:05;9.27;;;6.53;;
9222;SDS011;7557;51.698;3.942;2023-04-01T10:36:58;13.40;;;6.87;;
9222;SDS011;7557;51.698;3.942;2023-04-01T10:39:34;14.50;;;7.00;;
9222;SDS011;7557;51.698;3.942;2023-04-01T10:54:52;10.23;;;4.93;;
9222;SDS011;7557;51.698;3.942;2023-04-01T11:10:10;5.83;;;3.00;;
9222;SDS011;7557;51.698;3.942;2023-04-01T11:13:26;5.60;;;2.40;;
9222;SDS011;7557;51.698;3.942;2023-04-01T11:16:33;2.93;;;2.20;;
9222;SDS011;7557;51.698;3.942;2023-04-01T11:19:33;3.80;;;2.30;;
9222;SDS011;7557;51.698;3.942;2023-04-01T11:22:46;5.07;;;2.67;;
9222;SDS011;7557;51.698;3.942;2023-04-01T11:25:52;5.53;;;2.80;;
9222;SDS011;7557;51.698;3.942;2023-04-01T11:31:56;7.13;;;2.40;;
9222;SDS011;7557;51.698;3.942;2023-04-01T11:34:34;4.83;;;2.60;;
9222;SDS011;7557;51.698;3.942;2023-04-01T11:37:15;7.17;;;2.77;;
9222;SDS011;7557;51.698;3.942;2023-04-01T11:39:54;5.27;;;2.87;;
9222;SDS011;7557;51.698;3.942;2023-04-01T11:42:34;3.93;;;2.40;;
9222;SDS011;7557;51.698;3.942;2023-04-01T11:45:12;3.77;;;2.30;;
9222;SDS011;7557;51.698;3.942;2023-04-01T11:48:07;8.97;;;3.03;;
9222;SDS011;7557;51.698;3.942;2023-04-01T11:50:54;4.20;;;3.37;;
9222;SDS011;7557;51.698;3.942;2023-04-01T11:53:38;3.77;;;2.47;;
9222;SDS011;7557;51.698;3.942;2023-04-01T11:56:19;4.30;;;2.10;;
9222;SDS011;7557;51.698;3.942;2023-04-01T12:02:16;7.63;;;3.17;;
9222;SDS011;7557;51.698;3.942;2023-04-01T12:04:57;7.63;;;2.90;;
9222;SDS011;7557;51.698;3.942;2023-04-01T12:07:44;6.73;;;3.37;;
9222;SDS011;7557;51.698;3.942;2023-04-01T12:10:25;4.10;;;2.97;;
9222;SDS011;7557;51.698;3.942;2023-04-01T12:13:01;5.20;;;2.83;;
9222;SDS011;7557;51.698;3.942;2023-04-01T12:15:36;6.47;;;2.83;;
9222;SDS011;7557;51.698;3.942;2023-04-01T12:18:22;5.37;;;2.73;;
9222;SDS011;7557;51.698;3.942;2023-04-01T12:20:56;5.33;;;4.03;;
9222;SDS011;7557;51.698;3.942;2023-04-01T12:23:45;9.37;;;3.33;;
9222;SDS011;7557;51.698;3.942;2023-04-01T12:26:28;5.23;;;3.37;;
9222;SDS011;7557;51.698;3.942;2023-04-01T12:29:15;10.93;;;3.87;;
9222;SDS011;7557;51.698;3.942;2023-04-01T12:32:03;7.17;;;3.10;;
9222;SDS011;7557;51.698;3.942;2023-04-01T12:34:49;3.07;;;2.70;;
9222;SDS011;7557;51.698;3.942;2023-04-01T12:37:34;8.83;;;3.40;;
9222;SDS011;7557;51.698;3.942;2023-04-01T12:40:14;4.23;;;2.73;;
9222;SDS011;7557;51.698;3.942;2023-04-01T12:43:08;3.47;;;2.57;;
9222;SDS011;7557;51.698;3.942;2023-04-01T12:45:48;7.43;;;3.37;;
9222;SDS011;7557;51.698;3.942;2023-04-01T12:48:28;6.60;;;3.30;;
9222;SDS011;7557;51.698;3.942;2023-04-01T12:51:24;3.87;;;2.67;;
9222;SDS011;7557;51.698;3.942;2023-04-01T12:57:34;8.10;;;2.63;;
9222;SDS011;7557;51.698;3.942;2023-04-01T13:00:24;6.10;;;3.47;;
9222;SDS011;7557;51.698;3.942;2023-04-01T13:03:14;3.87;;;2.13;;
9222;SDS011;7557;51.698;3.942;2023-04-01T13:09:11;7.10;;;2.37;;
9222;SDS011;7557;51.698;3.942;2023-04-01T13:11:58;9.17;;;3.17;;
9222;SDS011;7557;51.698;3.942;2023-04-01T13:14:57;10.40;;;3.27;;
9222;SDS011;7557;51.698;3.942;2023-04-01T13:17:50;3.93;;;2.37;;
9222;SDS011;7557;51.698;3.942;2023-04-01T13:20:30;5.33;;;2.37;;
9222;SDS011;7557;51.698;3.942;2023-04-01T13:23:10;9.63;;;2.70;;
9222;SDS011;7557;51.698;3.942;2023-04-01T13:25:58;2.60;;;2.40;;
9222;SDS011;7557;51.698;3.942;2023-04-01T13:28:34;4.60;;;2.40;;
9222;SDS011;7557;51.698;3.942;2023-04-01T13:31:08;4.43;;;2.47;;
9222;SDS011;7557;51.698;3.942;2023-04-01T13:33:44;7.33;;;2.43;;
9222;SDS011;7557;51.698;3.942;2023-04-01T13:36:21;6.97;;;3.07;;
9222;SDS011;7557;51.698;3.942;2023-04-01T13:39:01;8.23;;;2.97;;
9222;SDS011;7557;51.698;3.942;2023-04-01T13:41:48;4.43;;;3.93;;
9222;SDS011;7557;51.698;3.942;2023-04-01T13:44:28;13.83;;;5.53;;
9222;SDS011;7557;51.698;3.942;2023-04-01T13:47:06;12.67;;;6.00;;
9222;SDS011;7557;51.698;3.942;2023-04-01T13:49:53;13.60;;;5.97;;
9222;SDS011;7557;51.698;3.942;2023-04-01T13:52:56;13.40;;;7.23;;
9222;SDS011;7557;51.698;3.942;2023-04-01T13:56:03;13.87;;;6.93;;
9222;SDS011;7557;51.698;3.942;2023-04-01T13:58:51;16.07;;;8.37;;
9222;SDS011;7557;51.698;3.942;2023-04-01T14:01:36;14.20;;;6.73;;
9222;SDS011;7557;51.698;3.942;2023-04-01T14:07:09;18.07;;;8.37;;
9222;SDS011;7557;51.698;3.942;2023-04-01T14:09:47;9.77;;;6.73;;
9222;SDS011;7557;51.698;3.942;2023-04-01T14:12:28;21.33;;;8.67;;
9222;SDS011;7557;51.698;3.942;2023-04-01T14:15:09;19.00;;;8.13;;
9222;SDS011;7557;51.698;3.942;2023-04-01T14:18:00;17.77;;;8.67;;
9222;SDS011;7557;51.698;3.942;2023-04-01T14:20:42;16.07;;;6.43;;
9222;SDS011;7557;51.698;3.942;2023-04-01T14:23:30;22.67;;;9.10;;
9222;SDS011;7557;51.698;3.942;2023-04-01T14:26:19;22.50;;;10.03;;
9222;SDS011;7557;51.698;3.942;2023-04-01T14:29:01;23.33;;;10.47;;
9222;SDS011;7557;51.698;3.942;2023-04-01T14:34:34;23.17;;;10.43;;
9222;SDS011;7557;51.698;3.942;2023-04-01T14:40:18;29.93;;;9.40;;
9222;SDS011;7557;51.698;3.942;2023-04-01T14:43:18;31.47;;;11.23;;
9222;SDS011;7557;51.698;3.942;2023-04-01T14:46:06;21.43;;;8.47;;
9222;SDS011;7557;51.698;3.942;2023-04-01T14:48:57;9.37;;;4.87;;
9222;SDS011;7557;51.698;3.942;2023-04-01T14:51:29;8.67;;;6.00;;
9222;SDS011;7557;51.698;3.942;2023-04-01T14:54:02;8.13;;;5.23;;
9222;SDS011;7557;51.698;3.942;2023-04-01T14:56:36;9.03;;;3.90;;
9222;SDS011;7557;51.698;3.942;2023-04-01T14:59:13;7.10;;;3.73;;
9222;SDS011;7557;51.698;3.942;2023-04-01T15:01:47;7.37;;;4.00;;
9222;SDS011;7557;51.698;3.942;2023-04-01T15:04:33;3.30;;;3.00;;
9222;SDS011;7557;51.698;3.942;2023-04-01T15:10:38;5.10;;;3.10;;
9222;SDS011;7557;51.698;3.942;2023-04-01T15:13:36;8.83;;;5.03;;
9222;SDS011;7557;51.698;3.942;2023-04-01T15:16:30;7.07;;;4.10;;
9222;SDS011;7557;51.698;3.942;2023-04-01T15:19:10;7.37;;;3.40;;
9222;SDS011;7557;51.698;3.942;2023-04-01T15:21:48;7.00;;;3.80;;
9222;SDS011;7557;51.698;3.942;2023-04-01T15:24:28;6.73;;;3.93;;
9222;SDS011;7557;51.698;3.942;2023-04-01T15:27:11;8.43;;;4.43;;
9222;SDS011;7557;51.698;3.942;2023-04-01T15:30:09;6.23;;;3.03;;
9222;SDS011;7557;51.698;3.942;2023-04-01T15:32:48;7.03;;;4.40;;
9222;SDS011;7557;51.698;3.942;2023-04-01T15:35:29;5.70;;;4.93;;
9222;SDS011;7557;51.698;3.942;2023-04-01T15:38:06;10.60;;;3.83;;
9222;SDS011;7557;51.698;3.942;2023-04-01T15:40:41;8.93;;;3.93;;
9222;SDS011;7557;51.698;3.942;2023-04-01T15:43:17;10.20;;;4.87;;
9222;SDS011;7557;51.698;3.942;2023-04-01T15:45:57;13.57;;;4.90;;
9222;SDS011;7557;51.698;3.942;2023-04-01T15:48:40;15.07;;;7.07;;
9222;SDS011;7557;51.698;3.942;2023-04-01T15:51:20;12.17;;;4.67;;
9222;SDS011;7557;51.698;3.942;2023-04-01T15:54:22;13.53;;;5.40;;
9222;SDS011;7557;51.698;3.942;2023-04-01T15:57:17;22.30;;;6.30;;
9222;SDS011;7557;51.698;3.942;2023-04-01T16:00:06;17.53;;;7.17;;
9222;SDS011;7557;51.698;3.942;2023-04-01T16:02:45;16.27;;;5.90;;
9222;SDS011;7557;51.698;3.942;2023-04-01T16:05:27;15.77;;;6.63;;
9222;SDS011;7557;51.698;3.942;2023-04-01T16:08:12;10.60;;;5.77;;
9222;SDS011;7557;51.698;3.942;2023-04-01T16:11:12;17.70;;;7.37;;
9222;SDS011;7557;51.698;3.942;2023-04-01T16:13:48;18.50;;;7.27;;
9222;SDS011;7557;51.698;3.942;2023-04-01T16:16:28;20.30;;;6.73;;
9222;SDS011;7557;51.698;3.942;2023-04-01T16:21:59;16.63;;;6.47;;
9222;SDS011;7557;51.698;3.942;2023-04-01T16:24:33;16.23;;;5.50;;
9222;SDS011;7557;51.698;3.942;2023-04-01T16:27:07;16.10;;;6.37;;
9222;SDS011;7557;51.698;3.942;2023-04-01T16:29:41;22.10;;;6.20;;
9222;SDS011;7557;51.698;3.942;2023-04-01T16:32:27;14.40;;;5.87;;
9222;SDS011;7557;51.698;3.942;2023-04-01T16:37:52;13.90;;;6.77;;
9222;SDS011;7557;51.698;3.942;2023-04-01T16:40:26;13.23;;;5.40;;
9222;SDS011;7557;51.698;3.942;2023-04-01T16:43:10;13.83;;;4.77;;
9222;SDS011;7557;51.698;3.942;2023-04-01T16:45:43;11.57;;;4.37;;
9222;SDS011;7557;51.698;3.942;2023-04-01T16:48:21;9.03;;;4.73;;
9222;SDS011;7557;51.698;3.942;2023-04-01T16:50:55;14.00;;;5.33;;
9222;SDS011;7557;51.698;3.942;2023-04-01T16:53:31;11.57;;;4.10;;
9222;SDS011;7557;51.698;3.942;2023-04-01T16:56:08;11.10;;;4.20;;
9222;SDS011;7557;51.698;3.942;2023-04-01T16:58:41;12.70;;;6.07;;
9222;SDS011;7557;51.698;3.942;2023-04-01T17:01:23;11.93;;;4.97;;
9222;SDS011;7557;51.698;3.942;2023-04-01T17:03:57;17.33;;;5.20;;
9222;SDS011;7557;51.698;3.942;2023-04-01T17:06:31;10.60;;;4.37;;
9222;SDS011;7557;51.698;3.942;2023-04-01T17:09:14;12.33;;;4.70;;
9222;SDS011;7557;51.698;3.942;2023-04-01T17:11:53;15.03;;;5.93;;
9222;SDS011;7557;51.698;3.942;2023-04-01T17:14:28;12.87;;;4.67;;
9222;SDS011;7557;51.698;3.942;2023-04-01T17:17:09;14.50;;;5.10;;
9222;SDS011;7557;51.698;3.942;2023-04-01T17:19:52;11.97;;;5.10;;
9222;SDS011;7557;51.698;3.942;2023-04-01T17:22:31;11.30;;;4.13;;
9222;SDS011;7557;51.698;3.942;2023-04-01T17:25:16;20.00;;;6.10;;
9222;SDS011;7557;51.698;3.942;2023-04-01T17:27:55;11.50;;;3.10;;
9222;SDS011;7557;51.698;3.942;2023-04-01T17:30:30;20.23;;;5.30;;
9222;SDS011;7557;51.698;3.942;2023-04-01T17:36:15;8.23;;;3.57;;